Governor's Harbour, The Bahamas
Current Conditions -  °F | °C
As of 9:00 AM on Friday 31 Oct 2014 (Local Time) from MYNN Reporting Station
Scattered Clouds Scattered Clouds  
Wind Chill: 77°   Ceiling: Unl
Heat Index: 79°   Visibility: 6mi
Dew Point: 70°   Wind: 7mph
Humidity: 78%   Direction: 260°W
Pressure: 29.88"   Gusts: NA
Location:  25.17°N, 76.23°W
Report Text: MYNN 311300Z 26006KT 9999 FEW016 SCT035 25/21 A2988
Loading
Personal Weather Stations






























Interactive Weather Map New forecast layout! Learn more

10-Day Weather Forecast

Advertisements
Track Severe Weather on mobile